Time;durP1;ratioP1;P1;durP2;ratioP2;P2;SDS_P1;SDS_P2;PMS_P1;PMS_P2;Temp;Humidity;BMP_temperature;BMP_pressure;BME280_temperature;BME280_humidity;BME280_pressure;Samples;Min_cycle;Max_cycle;Signal;HPM_P1;HPM_P2
2023/06/23 00:00:59;;;;;;;25.75;14.68;;;;;;;-143.21;86.88;71830.25;4938258;28;20204;-77
2023/06/23 00:14:38;;;;;;;17.95;12.05;;;;;;;-143.21;85.24;71846.13;4962732;28;20243;-78
2023/06/23 00:17:07;;;;;;;20.38;11.40;;;;;;;-143.21;84.41;71854.06;4986009;28;20213;-77
2023/06/23 00:19:33;;;;;;;19.05;13.82;;;;;;;-143.21;85.48;71854.06;5044251;28;20198;-77
2023/06/23 00:22:00;;;;;;;23.85;14.73;;;;;;;-143.21;86.62;71865.97;5085338;28;20269;-77
2023/06/23 00:24:27;;;;;;;18.75;13.13;;;;;;;-143.21;87.52;71867.94;5083028;28;20225;-77
2023/06/23 00:26:54;;;;;;;21.25;13.90;;;;;;;-143.21;87.90;71863.97;5083110;28;20287;-77
2023/06/23 00:29:22;;;;;;;23.27;13.13;;;;;;;-143.21;88.35;71863.97;5085747;28;20213;-77
2023/06/23 00:31:50;;;;;;;22.02;13.35;;;;;;;-143.21;88.19;71869.91;5085451;28;20205;-76
2023/06/23 00:34:17;;;;;;;20.63;11.40;;;;;;;-143.21;87.51;71869.91;5085149;28;20208;-77
2023/06/23 00:36:43;;;;;;;18.95;12.38;;;;;;;-143.21;86.95;71873.88;5085300;28;20607;-76
2023/06/23 00:39:10;;;;;;;16.00;9.93;;;;;;;-143.21;85.70;71879.84;5085542;28;20225;-77
2023/06/23 00:41:37;;;;;;;16.25;10.20;;;;;;;-143.21;85.85;71889.75;5085991;28;20254;-77
2023/06/23 00:44:08;;;;;;;17.85;10.25;;;;;;;-143.21;85.96;71889.75;5084324;28;20250;-77
2023/06/23 00:46:37;;;;;;;19.08;11.45;;;;;;;-143.21;86.55;71891.72;5084823;28;20213;-77
2023/06/23 00:49:04;;;;;;;17.27;10.40;;;;;;;-143.21;87.61;71893.72;5084845;28;20204;-77
2023/06/23 00:51:32;;;;;;;14.90;9.95;;;;;;;-143.21;86.61;71887.78;5085868;28;20286;-77
2023/06/23 00:53:59;;;;;;;14.65;10.43;;;;;;;-143.21;84.30;71881.81;5082188;28;20209;-76
2023/06/23 00:56:26;;;;;;;16.98;11.05;;;;;;;-143.21;84.44;71887.78;5085692;28;20287;-76
2023/06/23 00:58:55;;;;;;;17.35;11.05;;;;;;;-143.21;86.18;71887.78;5086097;28;20287;-76
2023/06/23 01:01:22;;;;;;;20.63;12.02;;;;;;;-143.21;87.06;71889.75;5084560;28;20216;-76
2023/06/23 01:03:51;;;;;;;15.35;11.15;;;;;;;-143.21;87.27;71889.75;5084499;28;20205;-76
2023/06/23 01:06:29;;;;;;;22.25;10.90;;;;;;;-143.21;86.85;71883.81;5084566;28;20232;-76
2023/06/23 01:09:02;;;;;;;16.02;10.93;;;;;;;-143.21;86.01;71879.84;5086976;28;20258;-76
2023/06/23 01:11:41;;;;;;;18.00;11.27;;;;;;;-143.21;85.83;71877.84;5089211;28;20201;-76
2023/06/23 01:14:16;;;;;;;20.52;11.45;;;;;;;-143.21;86.40;71887.78;5088174;28;20689;-76
2023/06/23 01:16:49;;;;;;;22.25;12.15;;;;;;;-143.21;86.83;71879.84;5088103;28;20667;-76
2023/06/23 01:19:28;;;;;;;20.92;12.63;;;;;;;-143.21;87.27;71881.81;5087069;28;20211;-76
2023/06/23 01:22:03;;;;;;;18.08;12.07;;;;;;;-143.21;87.35;71883.81;5089177;28;20660;-76
2023/06/23 01:24:43;;;;;;;30.40;13.10;;;;;;;-143.21;87.31;71875.88;5086167;28;20220;-77
2023/06/23 01:27:30;;;;;;;25.63;12.60;;;;;;;-143.21;87.70;71871.91;5087073;28;20208;-77
2023/06/23 01:30:01;;;;;;;24.70;14.05;;;;;;;-143.21;87.56;71873.88;5085526;28;20568;-77
2023/06/23 01:32:35;;;;;;;32.40;16.20;;;;;;;-143.21;87.99;71867.94;5085316;28;20224;-77
2023/06/23 01:35:08;;;;;;;31.55;16.60;;;;;;;-143.21;88.27;71875.88;5085377;28;20704;-76
2023/06/23 01:37:38;;;;;;;41.38;19.40;;;;;;;-143.21;88.69;71883.81;5087966;28;20208;-77
2023/06/23 01:40:12;;;;;;;38.88;19.08;;;;;;;-143.21;88.94;71877.84;5087645;28;20215;-77
2023/06/23 01:42:44;;;;;;;38.58;20.55;;;;;;;-143.21;88.92;71881.81;5088169;28;20207;-77
2023/06/23 01:45:16;;;;;;;39.03;22.85;;;;;;;-143.21;89.48;71885.78;5088366;28;20229;-77
2023/06/23 01:47:48;;;;;;;42.65;21.25;;;;;;;-143.21;89.62;71889.75;5088975;28;20670;-76
2023/06/23 01:50:18;;;;;;;36.75;20.50;;;;;;;-143.21;89.99;71889.75;5088447;28;20211;-76
2023/06/23 01:52:47;;;;;;;34.65;19.25;;;;;;;-143.21;90.37;71893.72;5087844;28;20193;-76
2023/06/23 01:55:15;;;;;;;32.47;18.55;;;;;;;-143.21;90.56;71895.69;5083895;28;20193;-77
2023/06/23 01:57:44;;;;;;;40.20;18.27;;;;;;;-143.21;90.90;71899.66;5087818;28;20258;-76
2023/06/23 02:00:15;;;;;;;33.95;19.73;;;;;;;-143.21;90.82;71897.69;5088302;28;20201;-76
2023/06/23 02:02:44;;;;;;;37.45;20.20;;;;;;;-143.21;90.36;71893.72;5087755;28;20671;-76
2023/06/23 02:05:11;;;;;;;31.70;19.88;;;;;;;-143.21;90.14;71891.72;5087333;28;20833;-76
2023/06/23 02:07:40;;;;;;;28.65;18.58;;;;;;;-143.21;90.35;71895.69;5087722;28;20205;-76
2023/06/23 02:10:08;;;;;;;25.30;17.38;;;;;;;-143.21;90.66;71899.66;5087223;28;20204;-76
2023/06/23 02:12:36;;;;;;;31.83;18.13;;;;;;;-143.21;90.87;71901.66;5088106;28;20258;-76
2023/06/23 02:15:06;;;;;;;34.17;18.45;;;;;;;-143.21;90.87;71889.75;5086494;28;20598;-76
2023/06/23 02:17:35;;;;;;;28.50;18.38;;;;;;;-143.21;90.98;71897.69;5087644;28;20205;-76
2023/06/23 02:20:13;;;;;;;30.35;17.77;;;;;;;-143.21;91.01;71911.56;5086008;28;20293;-76
2023/06/23 02:22:43;;;;;;;27.05;17.45;;;;;;;-143.21;91.33;71909.56;5087852;28;20215;-76
2023/06/23 02:25:11;;;;;;;25.98;16.80;;;;;;;-143.21;91.66;71919.50;5087505;28;20220;-76
2023/06/23 02:27:39;;;;;;;26.38;16.77;;;;;;;-143.21;91.68;71929.41;5087469;28;20228;-77
2023/06/23 02:30:08;;;;;;;24.83;16.73;;;;;;;-143.21;91.76;71923.47;5086658;28;20201;-77
2023/06/23 02:32:36;;;;;;;22.52;16.30;;;;;;;-143.21;91.80;71929.41;5086920;28;20205;-77
2023/06/23 02:35:04;;;;;;;25.02;16.40;;;;;;;-143.21;91.67;71923.47;5086393;28;20208;-77
2023/06/23 02:37:34;;;;;;;27.35;16.90;;;;;;;-143.21;91.82;71923.47;5086848;28;20288;-77
2023/06/23 02:40:06;;;;;;;28.50;17.77;;;;;;;-143.21;91.76;71927.44;5086150;28;20200;-76
2023/06/23 02:42:38;;;;;;;28.17;19.50;;;;;;;-143.21;91.66;71931.38;5085703;28;20284;-76
2023/06/23 02:45:10;;;;;;;27.38;19.40;;;;;;;-143.21;91.91;71929.41;5085487;28;20224;-76
2023/06/23 02:47:40;;;;;;;30.83;20.60;;;;;;;-143.21;91.95;71925.44;5086710;28;20204;-76
2023/06/23 02:50:12;;;;;;;39.38;28.50;;;;;;;-143.21;91.98;71925.44;5087303;28;20215;-77
2023/06/23 02:52:44;;;;;;;41.92;27.70;;;;;;;-143.21;91.79;71923.47;5087324;28;20227;-76
2023/06/23 02:55:13;;;;;;;33.53;22.70;;;;;;;-143.21;91.88;71933.38;5085863;28;20254;-77
2023/06/23 02:57:42;;;;;;;34.40;22.58;;;;;;;-143.21;92.18;71927.44;5085842;28;20204;-77
2023/06/23 03:00:18;;;;;;;33.47;22.33;;;;;;;-143.21;92.61;71939.31;5086052;28;20212;-77
2023/06/23 03:02:52;;;;;;;34.97;22.13;;;;;;;-143.21;93.07;71941.31;5086903;28;20197;-78
2023/06/23 03:05:21;;;;;;;33.60;21.40;;;;;;;-143.21;93.10;71937.34;5085642;28;20237;-77
2023/06/23 03:07:48;;;;;;;29.88;21.02;;;;;;;-143.21;93.10;71933.38;5086670;28;20281;-77
2023/06/23 03:10:15;;;;;;;31.75;22.55;;;;;;;-143.21;93.26;71933.38;5086079;28;20213;-77
2023/06/23 03:12:42;;;;;;;29.38;21.55;;;;;;;-143.21;93.49;71947.25;5086276;28;20201;-77
2023/06/23 03:15:09;;;;;;;30.38;21.27;;;;;;;-143.21;93.63;71949.25;5085169;28;20200;-76
2023/06/23 03:17:40;;;;;;;26.33;18.83;;;;;;;-143.21;93.83;71951.22;5086141;28;20200;-77
2023/06/23 03:20:15;;;;;;;26.75;19.42;;;;;;;-143.21;94.05;71949.25;5085219;28;20232;-77
2023/06/23 03:22:46;;;;;;;30.63;19.55;;;;;;;-143.21;94.35;71955.19;5085821;28;20693;-77
2023/06/23 03:25:18;;;;;;;31.30;20.27;;;;;;;-143.21;94.32;71941.31;5085600;28;20236;-77
2023/06/23 03:27:46;;;;;;;36.20;19.92;;;;;;;-143.21;94.40;71947.25;5086691;28;20232;-77
2023/06/23 03:30:21;;;;;;;31.77;21.75;;;;;;;-143.21;94.50;71947.25;5085040;28;20325;-77
2023/06/23 03:32:50;;;;;;;31.05;21.27;;;;;;;-143.21;94.45;71945.28;5086077;28;20205;-76
2023/06/23 03:35:23;;;;;;;28.20;19.75;;;;;;;-143.21;93.90;71937.34;5084258;28;20331;-77
2023/06/23 03:37:53;;;;;;;30.33;18.63;;;;;;;-143.21;93.67;71933.38;5086015;28;20891;-77
2023/06/23 03:40:22;;;;;;;28.02;17.98;;;;;;;-143.21;93.70;71929.41;5085274;28;20227;-77
2023/06/23 03:42:53;;;;;;;27.75;17.33;;;;;;;-143.21;93.45;71925.44;5086278;28;20204;-77
2023/06/23 03:45:23;;;;;;;25.63;18.33;;;;;;;-143.21;92.97;71917.50;5086257;28;20217;-77
2023/06/23 03:47:53;;;;;;;26.88;18.40;;;;;;;-143.21;92.41;71915.53;5085494;28;20644;-77
2023/06/23 03:50:26;;;;;;;27.67;17.42;;;;;;;-143.21;92.60;71917.50;5085869;28;20209;-77
2023/06/23 03:52:56;;;;;;;32.42;18.25;;;;;;;-143.21;92.99;71919.50;5086576;28;20204;-76
2023/06/23 03:55:25;;;;;;;35.80;18.35;;;;;;;-143.21;93.07;71913.53;5085341;28;20204;-76
2023/06/23 03:57:53;;;;;;;26.80;17.95;;;;;;;-143.21;92.99;71911.56;5085423;28;20212;-76
2023/06/23 04:00:22;;;;;;;24.90;18.17;;;;;;;-143.21;93.37;71913.53;5085328;28;20213;-76
2023/06/23 04:02:51;;;;;;;25.63;17.88;;;;;;;-143.21;93.08;71907.59;5084752;28;21509;-77
2023/06/23 04:05:21;;;;;;;25.02;17.25;;;;;;;-143.21;93.10;71907.59;5084988;28;20924;-77
2023/06/23 04:07:51;;;;;;;23.67;17.52;;;;;;;-143.21;92.56;71915.53;5086314;28;20215;-77
2023/06/23 04:10:20;;;;;;;24.73;17.77;;;;;;;-143.21;92.92;71919.50;5085157;28;20209;-76
2023/06/23 04:12:48;;;;;;;24.85;17.20;;;;;;;-143.21;92.57;71919.50;5085328;28;20208;-76
2023/06/23 04:15:18;;;;;;;25.35;17.08;;;;;;;-143.21;92.44;71905.63;5084745;28;20691;-77
2023/06/23 04:17:47;;;;;;;27.25;17.55;;;;;;;-143.21;92.54;71911.56;5085487;28;20232;-77
2023/06/23 04:20:15;;;;;;;29.85;18.40;;;;;;;-143.21;92.71;71907.59;5084070;28;20694;-76
2023/06/23 04:22:45;;;;;;;29.08;18.98;;;;;;;-143.21;93.05;71903.63;5085242;28;20610;-77
2023/06/23 04:25:17;;;;;;;25.25;18.63;;;;;;;-143.21;92.52;71907.59;5084817;28;20193;-77
2023/06/23 04:27:46;;;;;;;27.70;17.90;;;;;;;-143.21;92.68;71899.66;5085597;28;20209;-77
2023/06/23 04:30:14;;;;;;;32.03;18.92;;;;;;;-143.21;92.64;71909.56;5085482;28;20655;-78
2023/06/23 04:32:43;;;;;;;29.75;20.40;;;;;;;-143.21;92.97;71909.56;5085355;28;20207;-78
2023/06/23 04:35:10;;;;;;;35.22;20.52;;;;;;;-143.21;93.42;71897.69;5084525;28;20205;-77
2023/06/23 04:37:44;;;;;;;32.70;21.88;;;;;;;-143.21;93.49;71893.72;5085450;28;20211;-77
2023/06/23 04:40:18;;;;;;;28.73;21.65;;;;;;;-143.21;93.29;71881.81;5085399;28;20288;-78
2023/06/23 04:42:51;;;;;;;29.80;21.35;;;;;;;-143.21;93.07;71875.88;5088301;28;21531;-77
2023/06/23 04:45:22;;;;;;;32.55;21.48;;;;;;;-143.21;93.32;71875.88;5088652;28;20208;-76
2023/06/23 04:47:55;;;;;;;27.20;21.17;;;;;;;-143.21;93.20;71871.91;5089561;28;20213;-76
2023/06/23 04:50:24;;;;;;;34.35;21.77;;;;;;;-143.21;93.47;71871.91;5088698;28;20208;-77
2023/06/23 04:52:54;;;;;;;32.95;20.77;;;;;;;-143.21;93.54;71877.84;5089726;28;20197;-77
2023/06/23 04:55:30;;;;;;;26.33;21.48;;;;;;;-143.21;93.32;71867.94;5089373;28;20292;-77
2023/06/23 04:57:59;;;;;;;37.13;22.25;;;;;;;-143.21;92.85;71867.94;5086254;28;20196;-78
2023/06/23 05:00:31;;;;;;;30.10;20.70;;;;;;;-143.21;92.49;71862.00;5085867;28;20574;-78
2023/06/23 05:03:00;;;;;;;32.72;22.27;;;;;;;-143.21;92.27;71862.00;5082772;28;20250;-78
2023/06/23 05:05:30;;;;;;;30.45;21.55;;;;;;;-143.21;92.50;71862.00;5084155;28;20201;-78
2023/06/23 05:07:59;;;;;;;31.92;22.10;;;;;;;-143.21;92.51;71862.00;5085022;28;20192;-78
2023/06/23 05:10:28;;;;;;;31.63;21.95;;;;;;;-143.21;92.44;71856.03;5087539;28;20208;-78
2023/06/23 05:12:57;;;;;;;29.55;21.17;;;;;;;-143.21;91.84;71854.06;5085640;28;20299;-78
2023/06/23 05:15:25;;;;;;;26.90;20.70;;;;;;;-143.21;91.85;71852.06;5087955;28;20204;-78
2023/06/23 05:17:56;;;;;;;28.88;20.08;;;;;;;-143.21;91.92;71850.09;5088353;28;20224;-78
2023/06/23 05:20:25;;;;;;;33.72;21.08;;;;;;;-143.21;91.16;71838.19;5087995;28;20287;-78
2023/06/23 05:22:55;;;;;;;36.00;21.05;;;;;;;-143.21;90.36;71840.19;5088835;28;20211;-76
2023/06/23 05:25:29;;;;;;;27.33;20.20;;;;;;;-143.21;89.87;71840.19;5088486;28;20197;-77
2023/06/23 05:28:00;;;;;;;29.73;20.85;;;;;;;-143.21;89.97;71838.19;5084912;28;20197;-77
2023/06/23 05:30:28;;;;;;;34.15;20.80;;;;;;;-143.21;90.21;71838.19;5086167;28;20212;-78
2023/06/23 05:32:58;;;;;;;29.20;20.08;;;;;;;-143.21;90.01;71826.28;5085385;28;20208;-77
2023/06/23 05:35:28;;;;;;;32.28;21.23;;;;;;;-143.21;89.88;71824.31;5088250;28;20717;-77
2023/06/23 05:37:58;;;;;;;33.35;21.65;;;;;;;-143.21;89.75;71820.34;5084917;28;20258;-77
2023/06/23 05:40:25;;;;;;;36.85;22.77;;;;;;;-143.21;89.42;71808.44;5087871;28;20205;-77
2023/06/23 05:42:52;;;;;;;31.38;22.23;;;;;;;-143.21;89.29;71802.50;5088242;28;20204;-77
2023/06/23 05:45:20;;;;;;;34.72;23.15;;;;;;;-143.21;89.66;71798.53;5087300;28;20284;-77
2023/06/23 05:47:58;;;;;;;32.75;22.90;;;;;;;-143.21;89.16;71788.63;5088368;28;20225;-77
2023/06/23 05:50:30;;;;;;;36.92;23.85;;;;;;;-143.21;89.72;71796.56;5088279;28;20576;-77
2023/06/23 05:53:01;;;;;;;36.00;23.55;;;;;;;-143.21;89.23;71780.69;5084863;28;20262;-77
2023/06/23 05:55:29;;;;;;;36.22;23.52;;;;;;;-143.21;88.88;71768.78;5087439;28;20204;-78
2023/06/23 05:58:00;;;;;;;33.55;22.88;;;;;;;-143.21;88.75;71766.81;5084562;28;20197;-77
2023/06/23 06:00:34;;;;;;;31.88;21.77;;;;;;;-143.21;88.82;71766.81;5085018;28;20201;-78
2023/06/23 06:03:02;;;;;;;32.65;21.38;;;;;;;-143.21;88.43;71760.88;5087550;28;20196;-78
2023/06/23 06:05:30;;;;;;;40.67;23.92;;;;;;;-143.21;88.02;71756.91;5084748;28;20567;-79
2023/06/23 06:07:58;;;;;;;33.67;23.50;;;;;;;-143.21;87.82;71752.94;5088381;28;20201;-78
2023/06/23 06:10:27;;;;;;;34.22;22.83;;;;;;;-143.21;87.61;71741.03;5087753;28;20201;-78
2023/06/23 06:12:56;;;;;;;37.75;26.40;;;;;;;-143.21;87.38;71725.16;5084514;28;20201;-78
2023/06/23 06:15:24;;;;;;;37.70;25.13;;;;;;;-143.21;87.67;71725.16;5088129;28;20281;-78
2023/06/23 06:17:53;;;;;;;57.50;29.85;;;;;;;-143.21;87.90;71713.28;5087483;28;20283;-77
2023/06/23 06:20:22;;;;;;;41.05;26.10;;;;;;;-143.21;87.85;71703.34;5086741;28;20331;-77
2023/06/23 06:22:51;;;;;;;33.40;24.02;;;;;;;-143.21;87.51;71703.34;5086663;28;20288;-77
2023/06/23 06:25:18;;;;;;;38.40;25.52;;;;;;;-143.21;87.53;71689.47;5086630;28;20220;-77
2023/06/23 06:27:48;;;;;;;41.42;26.05;;;;;;;-143.21;86.81;71685.50;5087750;28;20246;-76
2023/06/23 06:30:17;;;;;;;41.15;24.55;;;;;;;-143.21;86.30;71679.56;5086707;28;20208;-78
2023/06/23 06:32:45;;;;;;;40.20;25.58;;;;;;;-143.21;85.93;71671.63;5086081;28;20200;-78
2023/06/23 06:35:15;;;;;;;39.10;25.00;;;;;;;-143.21;85.96;71661.72;5086578;28;20207;-77
2023/06/23 06:37:47;;;;;;;29.65;22.85;;;;;;;-143.21;85.78;71655.78;5087209;28;20337;-78
2023/06/23 06:40:16;;;;;;;38.92;25.13;;;;;;;-143.21;85.38;71653.78;5086546;28;20578;-77
2023/06/23 06:42:43;;;;;;;43.55;23.85;;;;;;;-143.21;85.28;71643.88;5087398;28;20574;-78
2023/06/23 06:45:11;;;;;;;36.80;24.95;;;;;;;-143.21;84.03;71626.03;5087171;28;20205;-77
2023/06/23 06:47:42;;;;;;;40.05;25.27;;;;;;;-143.21;83.70;71620.09;5087034;28;20217;-78
2023/06/23 06:50:10;;;;;;;34.00;24.52;;;;;;;-143.21;83.72;71608.19;5087472;28;20285;-77
2023/06/23 06:52:40;;;;;;;41.88;24.35;;;;;;;-143.21;83.59;71598.28;5085806;28;20246;-78
2023/06/23 06:55:14;;;;;;;34.00;23.77;;;;;;;-143.21;83.49;71592.31;5086052;28;20287;-79
2023/06/23 06:57:43;;;;;;;37.40;24.73;;;;;;;-143.21;83.49;71574.47;5087529;28;20275;-78
2023/06/23 07:00:10;;;;;;;34.97;25.58;;;;;;;-143.21;82.60;71562.59;5084484;28;20193;-77
2023/06/23 07:02:39;;;;;;;39.95;25.60;;;;;;;-143.21;82.71;71556.63;5086311;28;20305;-78
2023/06/23 07:05:06;;;;;;;34.22;24.60;;;;;;;-143.21;82.43;71546.72;5084701;28;20563;-76
2023/06/23 07:07:33;;;;;;;36.70;24.83;;;;;;;-143.21;81.41;71530.88;5085778;28;20225;-77
2023/06/23 07:10:02;;;;;;;35.92;23.92;;;;;;;-143.21;80.79;71516.97;5085467;28;20207;-79
2023/06/23 07:12:29;;;;;;;41.72;23.35;;;;;;;-143.21;80.72;71511.03;5086143;28;20192;-79
2023/06/23 07:14:56;;;;;;;35.95;23.83;;;;;;;-143.21;80.84;71505.09;5085444;28;20200;-78
2023/06/23 07:17:24;;;;;;;33.10;21.48;;;;;;;-143.21;80.47;71499.13;5086464;28;20204;-79
2023/06/23 07:20:07;;;;;;;35.47;23.92;;;;;;;-143.21;80.26;71487.25;5085490;28;20232;-78
2023/06/23 07:22:34;;;;;;;32.08;21.83;;;;;;;-143.21;79.20;71489.22;5082272;28;20693;-78
2023/06/23 07:25:02;;;;;;;35.78;21.30;;;;;;;-143.21;79.20;71475.34;5085187;28;20192;-79
2023/06/23 07:27:29;;;;;;;38.75;22.05;;;;;;;-143.21;79.31;71469.41;5088192;28;20668;-78
2023/06/23 07:29:58;;;;;;;36.72;20.27;;;;;;;-143.21;79.08;71455.53;5087516;28;20197;-79
2023/06/23 07:32:25;;;;;;;34.72;20.95;;;;;;;-143.21;78.98;71447.59;5088351;28;20656;-81
2023/06/23 07:34:52;;;;;;;33.72;21.27;;;;;;;-143.21;78.07;71443.63;5086907;28;20287;-80
2023/06/23 07:37:19;;;;;;;33.13;21.17;;;;;;;-143.21;77.79;71443.63;5086565;28;20213;-78
2023/06/23 07:39:46;;;;;;;35.63;23.02;;;;;;;-143.21;77.24;71429.75;5088094;28;20221;-80
2023/06/23 07:42:14;;;;;;;19.63;12.85;;;;;;;-143.21;77.48;71407.94;5086557;28;20209;-80
2023/06/23 07:44:41;;;;;;;30.10;19.33;;;;;;;-143.21;76.12;71394.06;5086948;28;20208;-81
2023/06/23 07:47:08;;;;;;;32.55;18.45;;;;;;;-143.21;75.98;71384.16;5084802;28;20227;-79
2023/06/23 07:49:35;;;;;;;33.10;20.38;;;;;;;-143.21;75.93;71378.19;5086080;28;20640;-81
2023/06/23 07:52:04;;;;;;;31.35;18.67;;;;;;;-143.21;74.83;71368.28;5086225;28;20214;-80
2023/06/23 07:54:31;;;;;;;23.10;17.65;;;;;;;-143.21;74.93;71366.31;5085918;28;20201;-81
2023/06/23 07:56:59;;;;;;;28.95;19.65;;;;;;;-143.21;74.21;71352.44;5085888;28;20196;-79
2023/06/23 07:59:29;;;;;;;25.83;18.45;;;;;;;-143.21;73.81;71342.50;5085656;28;20220;-80
2023/06/23 08:01:59;;;;;;;16.85;13.68;;;;;;;-143.21;74.56;71330.63;5086531;28;20193;-80
2023/06/23 08:04:25;;;;;;;29.02;18.55;;;;;;;-143.21;73.96;71324.66;5087237;28;20284;-81
2023/06/23 08:06:52;;;;;;;32.22;20.58;;;;;;;-143.21;73.38;71312.78;5085071;28;20220;-80
2023/06/23 08:09:22;;;;;;;26.73;18.92;;;;;;;-143.21;73.36;71302.84;5085102;28;20249;-80
2023/06/23 08:11:49;;;;;;;24.08;17.30;;;;;;;-143.21;73.49;71294.94;5086291;28;20204;-80
2023/06/23 08:14:21;;;;;;;29.02;17.92;;;;;;;-143.21;73.27;71287.00;5085161;28;20208;-80
2023/06/23 08:16:49;;;;;;;21.75;16.17;;;;;;;-143.21;72.92;71277.09;5088351;28;20232;-79
2023/06/23 08:19:21;;;;;;;27.48;18.25;;;;;;;-143.21;71.57;71263.22;5090789;28;20217;-80
2023/06/23 08:21:48;;;;;;;28.05;17.10;;;;;;;-143.21;71.13;71257.25;5089993;28;20327;-79
2023/06/23 08:24:15;;;;;;;38.90;17.80;;;;;;;-143.21;69.75;71247.34;5091557;28;20258;-78
2023/06/23 08:26:41;;;;;;;17.77;12.65;;;;;;;-143.21;70.76;71235.44;5091302;28;20278;-79
2023/06/23 08:29:09;;;;;;;25.33;16.05;;;;;;;-143.21;70.71;71225.53;5090117;28;20207;-80
2023/06/23 08:31:35;;;;;;;19.20;15.05;;;;;;;-143.21;69.19;71231.50;5090741;28;20634;-80
2023/06/23 08:34:04;;;;;;;22.70;16.08;;;;;;;-143.21;68.33;71223.56;5089028;28;20215;-79
2023/06/23 08:36:53;;;;;;;20.17;14.07;;;;;;;-143.21;67.76;71205.72;5089506;28;20197;-79
2023/06/23 08:39:20;;;;;;;25.25;15.07;;;;;;;-143.21;67.58;71201.75;5084039;28;20594;-80
2023/06/23 08:41:50;;;;;;;22.45;14.63;;;;;;;-143.21;67.16;71195.81;5089055;28;20674;-80
2023/06/23 08:44:19;;;;;;;19.77;14.50;;;;;;;-143.21;69.12;71187.88;5088311;28;20211;-80
2023/06/23 08:46:52;;;;;;;23.38;15.32;;;;;;;-143.21;68.85;71170.03;5088015;28;20285;-80
2023/06/23 08:49:23;;;;;;;19.48;14.15;;;;;;;-143.21;68.19;71162.09;5088872;28;20552;-81
2023/06/23 08:51:50;;;;;;;24.33;16.77;;;;;;;-143.21;67.45;71156.16;5090716;28;20205;-80
2023/06/23 08:54:17;;;;;;;15.98;13.57;;;;;;;-143.21;65.99;71150.22;5089219;28;20209;-82
2023/06/23 08:56:45;;;;;;;19.33;14.18;;;;;;;-143.21;66.11;71146.25;5089823;28;20232;-80
2023/06/23 08:59:12;;;;;;;22.50;15.50;;;;;;;-143.21;65.05;71134.34;5089746;28;20715;-81
2023/06/23 09:01:39;;;;;;;23.60;14.80;;;;;;;-143.21;64.71;71120.47;5089712;28;20276;-79
2023/06/23 09:04:06;;;;;;;22.40;14.20;;;;;;;-143.21;64.10;71116.50;5089465;28;20196;-82
2023/06/23 09:06:35;;;;;;;20.70;14.23;;;;;;;-143.21;64.31;71108.56;5090519;28;20201;-80
2023/06/23 09:09:02;;;;;;;22.67;13.77;;;;;;;-143.21;65.30;71092.72;5090070;28;20200;-81
2023/06/23 09:11:29;;;;;;;20.58;15.27;;;;;;;-143.21;63.70;71088.75;5089578;28;20232;-82
2023/06/23 09:13:57;;;;;;;24.88;13.80;;;;;;;-143.21;64.30;71082.81;5089461;28;20565;-80
2023/06/23 09:16:25;;;;;;;23.42;14.25;;;;;;;-143.21;64.39;71068.94;5086453;28;20224;-81
2023/06/23 09:18:53;;;;;;;21.45;13.02;;;;;;;-143.21;62.89;71059.00;5090061;28;20303;-82
2023/06/23 09:21:21;;;;;;;17.73;12.23;;;;;;;-143.21;62.98;71051.09;5090610;28;20745;-83
2023/06/23 09:24:03;;;;;;;20.63;12.55;;;;;;;-143.21;61.28;71037.22;5090729;28;20217;-83
2023/06/23 09:26:30;;;;;;;16.35;12.20;;;;;;;-143.21;59.50;71035.22;5087089;28;20204;-83
2023/06/23 09:29:16;;;;;;;20.70;11.98;;;;;;;-143.21;58.22;71031.25;5090903;28;20227;-82
2023/06/23 09:31:43;;;;;;;18.33;11.48;;;;;;;-143.21;57.97;71017.38;5090802;28;20279;-82
2023/06/23 09:34:10;;;;;;;12.90;10.68;;;;;;;-143.21;57.87;70999.53;5089872;28;20211;-83
2023/06/23 09:36:37;;;;;;;14.35;11.45;;;;;;;-143.21;57.87;70989.63;5091574;28;20196;-82
2023/06/23 09:39:06;;;;;;;15.25;12.68;;;;;;;-143.21;57.32;70981.69;5090551;28;20236;-82
2023/06/23 09:41:33;;;;;;;15.45;11.85;;;;;;;-143.21;59.08;70969.81;5091315;28;20612;-82
2023/06/23 09:44:00;;;;;;;15.00;11.77;;;;;;;-143.21;59.23;70957.91;5092085;28;20205;-82
2023/06/23 09:46:32;;;;;;;14.57;11.82;;;;;;;-143.21;59.28;70946.03;5088331;28;20208;-80
2023/06/23 09:49:07;;;;;;;17.55;11.57;;;;;;;-143.21;58.63;70932.13;5088207;28;20266;-82
2023/06/23 09:51:37;;;;;;;13.55;11.80;;;;;;;-143.21;58.08;70920.25;5089293;28;20188;-81
2023/06/23 09:54:04;;;;;;;22.92;11.43;;;;;;;-143.21;57.30;70910.34;5086245;28;20800;-81
2023/06/23 09:56:32;;;;;;;18.40;11.82;;;;;;;-143.21;58.08;70904.38;5089350;28;20193;-82
2023/06/23 09:58:59;;;;;;;14.32;9.65;;;;;;;-143.21;57.82;70892.50;5090010;28;20201;-83
2023/06/23 10:01:26;;;;;;;17.35;11.82;;;;;;;-143.21;57.33;70876.63;5085784;28;20663;-79
2023/06/23 10:03:55;;;;;;;19.25;12.10;;;;;;;-143.21;56.24;70864.75;5089705;28;20585;-80
2023/06/23 10:06:26;;;;;;;15.57;11.10;;;;;;;-143.21;56.27;70840.97;5086757;28;20205;-81
2023/06/23 10:08:55;;;;;;;20.90;11.10;;;;;;;-143.21;56.24;70825.09;5087692;28;20282;-78
2023/06/23 10:11:29;;;;;;;17.98;11.23;;;;;;;-143.21;55.58;70809.25;5086467;28;20197;-80
2023/06/23 10:14:01;;;;;;;12.63;11.02;;;;;;;-143.21;55.64;70795.38;5083701;28;20236;-77
2023/06/23 10:16:29;;;;;;;12.25;10.20;;;;;;;-143.21;55.50;70767.63;5083823;28;20291;-78
2023/06/23 10:18:56;;;;;;;16.25;10.00;;;;;;;-143.21;52.76;70763.66;5087445;28;20205;-80
2023/06/23 10:21:24;;;;;;;16.80;10.32;;;;;;;-143.21;53.50;70751.75;5086923;28;20236;-78
2023/06/23 10:23:53;;;;;;;14.65;9.32;;;;;;;-143.21;52.46;70753.72;5088229;28;20204;-78
2023/06/23 10:26:21;;;;;;;17.77;10.55;;;;;;;-143.21;52.64;70735.91;5087773;28;20205;-79
2023/06/23 10:28:50;;;;;;;14.82;10.50;;;;;;;-143.21;52.93;70714.09;5088226;28;20224;-77
2023/06/23 10:31:19;;;;;;;12.15;9.95;;;;;;;-143.21;52.67;70708.16;5088501;28;20269;-78
2023/06/23 10:33:47;;;;;;;11.68;9.88;;;;;;;-143.21;52.63;70694.25;5085064;28;20208;-77
2023/06/23 10:36:18;;;;;;;19.33;10.00;;;;;;;-143.21;52.76;70678.41;5087432;28;20282;-78
2023/06/23 10:38:47;;;;;;;13.52;9.93;;;;;;;-143.21;52.37;70664.53;5086234;28;20197;-78
2023/06/23 10:41:15;;;;;;;12.95;9.95;;;;;;;-143.21;52.44;70648.69;5085813;28;20382;-78
2023/06/23 10:43:56;;;;;;;13.52;9.88;;;;;;;-143.21;51.20;70620.94;5082106;28;20203;-79
2023/06/23 10:46:31;;;;;;;13.23;9.40;;;;;;;-143.21;50.39;70595.16;5084892;28;20196;-79
2023/06/23 10:49:03;;;;;;;14.40;10.02;;;;;;;-143.21;51.10;70569.38;5086224;28;20224;-82
2023/06/23 10:51:34;;;;;;;13.88;9.20;;;;;;;-143.21;49.52;70553.53;5082941;28;20200;-82
2023/06/23 10:54:05;;;;;;;15.95;9.52;;;;;;;-143.21;49.50;70533.72;5083640;28;20196;-81
2023/06/23 10:56:36;;;;;;;13.48;9.90;;;;;;;-143.21;49.75;70521.81;5086986;28;20207;-82
2023/06/23 10:59:39;;;;;;;15.07;10.07;;;;;;;-143.21;48.74;70509.94;5087751;28;20201;-82
2023/06/23 11:02:23;;;;;;;13.48;9.80;;;;;;;-143.21;47.62;70515.88;5086033;28;20201;-82
2023/06/23 11:04:57;;;;;;;16.73;9.63;;;;;;;-143.21;48.40;70490.09;5086902;28;20249;-82
2023/06/23 11:07:25;;;;;;;12.18;9.85;;;;;;;-143.21;47.48;70472.25;5088194;28;20259;-82
2023/06/23 11:10:04;;;;;;;12.80;9.45;;;;;;;-143.21;46.52;70474.25;5087827;28;20674;-82
2023/06/23 11:12:39;;;;;;;12.70;9.02;;;;;;;-143.21;47.54;70468.31;5084677;28;20314;-83
2023/06/23 11:15:27;;;;;;;13.52;10.25;;;;;;;-143.21;47.26;70446.50;5087313;28;20290;-83
2023/06/23 11:18:08;;;;;;;13.75;9.20;;;;;;;-143.21;46.95;70422.72;5082763;28;20296;-83
2023/06/23 11:20:40;;;;;;;11.65;9.45;;;;;;;-143.21;45.90;70412.81;5082682;28;20235;-83
2023/06/23 11:23:09;;;;;;;13.73;9.13;;;;;;;-143.21;47.00;70406.84;5084461;28;20287;-83
2023/06/23 11:25:39;;;;;;;15.45;8.98;;;;;;;-143.21;46.16;70379.09;5087398;28;20200;-86